Time;durP1;ratioP1;P1;durP2;ratioP2;P2;SDS_P1;SDS_P2;PMS_P1;PMS_P2;Temp;Humidity;BMP_temperature;BMP_pressure;BME280_temperature;BME280_humidity;BME280_pressure;Samples;Min_cycle;Max_cycle;Signal;HPM_P1;HPM_P2
2021/10/27 00:01:57;;;;;;;47.78;34.80;;;12.20;56.20;;;;;;5053032;28;20116;-64
2021/10/27 00:04:23;;;;;;;48.45;34.78;;;12.20;56.20;;;;;;5035329;28;20116;-64
2021/10/27 00:06:48;;;;;;;49.33;34.60;;;12.30;56.90;;;;;;5032571;28;20053;-65
2021/10/27 00:09:14;;;;;;;45.38;34.13;;;12.20;56.90;;;;;;5030542;28;20037;-64
2021/10/27 00:11:40;;;;;;;47.35;35.72;;;12.20;57.20;;;;;;5032879;28;20343;-64
2021/10/27 00:14:06;;;;;;;50.17;36.63;;;12.20;57.40;;;;;;5032946;28;20057;-64
2021/10/27 00:16:32;;;;;;;50.88;34.72;;;12.20;57.20;;;;;;5034141;28;20387;-64
2021/10/27 00:19:01;;;;;;;47.95;35.42;;;12.20;57.60;;;;;;5035205;28;20508;-64
2021/10/27 00:21:27;;;;;;;47.45;33.58;;;12.30;57.90;;;;;;5053936;28;20079;-64
2021/10/27 00:23:53;;;;;;;47.45;32.90;;;12.20;57.90;;;;;;5041624;28;20037;-64
2021/10/27 00:26:18;;;;;;;51.75;34.00;;;12.20;58.30;;;;;;5033840;28;20106;-65
2021/10/27 00:28:44;;;;;;;43.92;32.63;;;12.20;57.90;;;;;;5032960;28;20033;-64
2021/10/27 00:31:10;;;;;;;46.70;33.90;;;12.20;58.10;;;;;;5034078;28;20041;-64
2021/10/27 00:33:37;;;;;;;42.50;33.42;;;12.20;58.20;;;;;;5040239;28;20033;-65
2021/10/27 00:36:03;;;;;;;49.67;33.75;;;12.20;58.20;;;;;;5052139;28;20099;-64
2021/10/27 00:38:29;;;;;;;40.60;32.15;;;12.10;58.30;;;;;;5051832;28;20436;-64
2021/10/27 00:40:54;;;;;;;41.58;32.13;;;12.10;58.60;;;;;;5034351;28;20112;-64
2021/10/27 00:43:22;;;;;;;42.83;33.00;;;12.10;58.60;;;;;;5037609;28;20037;-64
2021/10/27 00:45:48;;;;;;;43.88;32.58;;;12.10;58.70;;;;;;5052334;28;20040;-64
2021/10/27 00:48:14;;;;;;;46.35;32.95;;;12.00;58.60;;;;;;5042660;28;20042;-64
2021/10/27 00:50:39;;;;;;;46.08;30.38;;;12.10;58.50;;;;;;5014056;28;20493;-64
2021/10/27 00:53:05;;;;;;;42.30;30.15;;;12.10;58.30;;;;;;5018934;28;20048;-64
2021/10/27 00:55:31;;;;;;;43.15;30.77;;;12.10;58.00;;;;;;5053361;28;20472;-64
2021/10/27 00:57:58;;;;;;;42.50;30.05;;;12.10;58.10;;;;;;5050147;28;20447;-65
2021/10/27 01:00:24;;;;;;;40.88;30.15;;;12.10;57.80;;;;;;5032040;28;20483;-64
2021/10/27 01:02:49;;;;;;;44.88;30.40;;;12.00;57.50;;;;;;5032475;28;20034;-64
2021/10/27 01:05:16;;;;;;;41.55;30.00;;;12.10;57.90;;;;;;5051871;28;20064;-64
2021/10/27 01:07:41;;;;;;;37.15;28.58;;;12.00;57.40;;;;;;5053148;28;20033;-64
2021/10/27 01:10:08;;;;;;;37.25;29.80;;;12.00;57.80;;;;;;5051124;28;20029;-64
2021/10/27 01:12:34;;;;;;;39.38;28.50;;;11.90;57.60;;;;;;5053155;28;20033;-64
2021/10/27 01:14:59;;;;;;;41.10;29.05;;;11.80;58.00;;;;;;5033836;28;20044;-64
2021/10/27 01:17:25;;;;;;;41.42;29.42;;;11.80;57.60;;;;;;5032149;28;20124;-64
2021/10/27 01:19:55;;;;;;;38.63;29.02;;;11.90;58.20;;;;;;5035141;28;20025;-65
2021/10/27 01:22:23;;;;;;;37.08;28.80;;;11.90;57.10;;;;;;5052982;28;20025;-64
2021/10/27 01:24:49;;;;;;;36.53;28.25;;;11.90;57.70;;;;;;5051003;28;20394;-64
2021/10/27 01:27:15;;;;;;;40.92;29.13;;;11.90;57.60;;;;;;5051687;28;20067;-64
2021/10/27 01:29:41;;;;;;;38.03;28.55;;;11.80;57.10;;;;;;5037251;28;20494;-64
2021/10/27 01:32:08;;;;;;;35.42;27.85;;;11.90;56.20;;;;;;5032998;28;20099;-64
2021/10/27 01:34:35;;;;;;;36.67;29.63;;;11.80;55.80;;;;;;5039669;28;20029;-65
2021/10/27 01:37:01;;;;;;;42.55;30.75;;;11.80;55.90;;;;;;5032022;28;20037;-64
2021/10/27 01:39:28;;;;;;;41.17;28.15;;;11.70;55.50;;;;;;5030843;28;20513;-64
2021/10/27 01:41:55;;;;;;;39.35;29.13;;;11.70;55.20;;;;;;5033087;28;20022;-64
2021/10/27 01:44:20;;;;;;;38.45;27.17;;;11.70;55.90;;;;;;5031993;28;20029;-64
2021/10/27 01:46:46;;;;;;;38.72;28.95;;;11.70;56.10;;;;;;5032793;28;20083;-64
2021/10/27 01:49:13;;;;;;;39.17;28.15;;;11.60;56.50;;;;;;5030603;28;20383;-64
2021/10/27 01:51:40;;;;;;;36.15;27.75;;;11.70;58.60;;;;;;5032816;28;20030;-65
2021/10/27 01:54:06;;;;;;;38.55;28.17;;;11.70;60.30;;;;;;5039897;28;20371;-65
2021/10/27 01:56:33;;;;;;;38.25;29.05;;;11.60;59.70;;;;;;5052653;28;20032;-65
2021/10/27 01:58:59;;;;;;;41.42;28.83;;;11.70;57.90;;;;;;5044306;28;20033;-65
2021/10/27 02:01:24;;;;;;;37.10;27.17;;;11.70;57.00;;;;;;5032761;28;20036;-65
2021/10/27 02:03:50;;;;;;;37.30;27.25;;;11.70;57.00;;;;;;5033244;28;20025;-64
2021/10/27 02:06:16;;;;;;;37.97;27.75;;;11.70;56.80;;;;;;5052576;28;20045;-65
2021/10/27 02:08:42;;;;;;;37.67;28.33;;;11.70;56.80;;;;;;5050968;28;20029;-65
2021/10/27 02:11:09;;;;;;;38.25;28.15;;;11.70;57.10;;;;;;5052542;28;20018;-64
2021/10/27 02:13:34;;;;;;;37.38;28.60;;;11.70;57.20;;;;;;5048327;28;20029;-65
2021/10/27 02:16:00;;;;;;;37.13;27.98;;;11.60;57.50;;;;;;5032618;28;20505;-64
2021/10/27 02:18:26;;;;;;;41.35;28.70;;;11.70;57.70;;;;;;5032346;28;20038;-65
2021/10/27 02:20:52;;;;;;;42.40;28.77;;;11.60;58.10;;;;;;5052496;28;20017;-64
2021/10/27 02:23:17;;;;;;;40.53;27.75;;;11.60;58.30;;;;;;5050878;28;20025;-65
2021/10/27 02:25:43;;;;;;;36.75;28.05;;;11.60;58.20;;;;;;5052043;28;20053;-65
2021/10/27 02:28:09;;;;;;;41.30;30.08;;;11.70;58.90;;;;;;5052287;28;20541;-64
2021/10/27 02:30:35;;;;;;;35.08;28.63;;;11.60;58.70;;;;;;5031714;28;20442;-65
2021/10/27 02:33:02;;;;;;;39.20;28.05;;;11.60;59.30;;;;;;5043685;28;20116;-64
2021/10/27 02:35:28;;;;;;;35.58;26.67;;;11.60;59.90;;;;;;5033691;28;20037;-64
2021/10/27 02:37:54;;;;;;;38.78;28.15;;;11.60;61.30;;;;;;5035978;28;20047;-65
2021/10/27 02:40:20;;;;;;;39.28;28.58;;;11.40;63.10;;;;;;5033995;28;20482;-65
2021/10/27 02:42:46;;;;;;;41.60;28.77;;;11.50;79.00;;;;;;5034630;28;20029;-65
2021/10/27 02:45:12;;;;;;;35.10;28.08;;;11.50;67.80;;;;;;5033736;28;20040;-65
2021/10/27 02:47:38;;;;;;;38.72;28.80;;;11.50;67.00;;;;;;5035779;28;20100;-65
2021/10/27 02:50:05;;;;;;;39.88;29.60;;;11.50;65.00;;;;;;5033541;28;20077;-65
2021/10/27 02:52:31;;;;;;;36.90;27.77;;;11.40;63.80;;;;;;5034349;28;20462;-65
2021/10/27 02:54:57;;;;;;;40.63;28.67;;;11.40;64.20;;;;;;5038125;28;20104;-65
2021/10/27 02:57:23;;;;;;;42.25;28.38;;;11.40;59.70;;;;;;5035454;28;20030;-65
2021/10/27 02:59:49;;;;;;;36.65;27.40;;;11.40;59.00;;;;;;5034940;28;20049;-65
2021/10/27 03:02:15;;;;;;;42.25;29.65;;;11.50;59.00;;;;;;5020889;28;20391;-65
2021/10/27 03:04:41;;;;;;;39.20;27.60;;;11.50;59.10;;;;;;5043923;28;20029;-64
2021/10/27 03:07:06;;;;;;;39.10;27.48;;;11.50;58.90;;;;;;5035612;28;20499;-65
2021/10/27 03:09:32;;;;;;;39.53;27.17;;;11.50;59.00;;;;;;5041895;28;20439;-65
2021/10/27 03:11:57;;;;;;;38.72;27.95;;;11.40;59.20;;;;;;5055203;28;20029;-64
2021/10/27 03:14:23;;;;;;;39.83;27.13;;;11.40;58.70;;;;;;5046809;28;20386;-64
2021/10/27 03:16:48;;;;;;;39.15;27.80;;;11.40;58.60;;;;;;5035354;28;20043;-65
2021/10/27 03:19:14;;;;;;;41.92;28.20;;;11.30;57.10;;;;;;5033988;28;20053;-65
2021/10/27 03:21:40;;;;;;;35.80;28.52;;;11.30;57.80;;;;;;5053262;28;20028;-65
2021/10/27 03:24:07;;;;;;;40.70;26.73;;;11.40;59.90;;;;;;5052956;28;20029;-64
2021/10/27 03:26:33;;;;;;;37.88;28.13;;;11.40;59.50;;;;;;5055033;28;20029;-64
2021/10/27 03:28:58;;;;;;;38.92;27.63;;;11.40;60.10;;;;;;5050389;28;20044;-64
2021/10/27 03:31:25;;;;;;;41.78;27.23;;;11.40;60.80;;;;;;5034422;28;20037;-64
2021/10/27 03:33:50;;;;;;;39.08;28.45;;;11.30;59.70;;;;;;5045028;28;20383;-64
2021/10/27 03:36:16;;;;;;;38.90;27.50;;;11.30;60.50;;;;;;5032275;28;20052;-64
2021/10/27 03:38:42;;;;;;;37.78;27.42;;;11.20;60.10;;;;;;5032213;28;20041;-63
2021/10/27 03:41:07;;;;;;;38.55;27.05;;;11.30;58.20;;;;;;5053226;28;20029;-64
2021/10/27 03:43:33;;;;;;;37.10;28.73;;;11.20;57.30;;;;;;5050544;28;20463;-64
2021/10/27 03:45:59;;;;;;;36.17;26.73;;;11.30;57.00;;;;;;5033516;28;20041;-63
2021/10/27 03:48:26;;;;;;;38.30;27.67;;;11.20;57.00;;;;;;5032337;28;20033;-63
2021/10/27 03:50:52;;;;;;;38.42;26.40;;;11.20;57.10;;;;;;5033554;28;20483;-63
2021/10/27 03:53:17;;;;;;;37.35;26.92;;;11.10;55.50;;;;;;5034295;28;20087;-64
2021/10/27 03:55:43;;;;;;;38.90;28.02;;;11.20;55.50;;;;;;5032251;28;20030;-64
2021/10/27 03:58:09;;;;;;;38.20;27.52;;;11.10;54.70;;;;;;5034269;28;20043;-64
2021/10/27 04:00:37;;;;;;;35.88;25.92;;;11.10;55.00;;;;;;5048070;28;20504;-64
2021/10/27 04:03:03;;;;;;;36.20;27.38;;;11.10;55.10;;;;;;5051010;28;20078;-64
2021/10/27 04:05:29;;;;;;;36.40;27.27;;;11.10;55.50;;;;;;5052166;28;20067;-63
2021/10/27 04:07:54;;;;;;;37.67;28.15;;;11.00;55.40;;;;;;5054379;28;20040;-64
2021/10/27 04:10:20;;;;;;;39.10;26.90;;;11.00;55.60;;;;;;5050535;28;20123;-63
2021/10/27 04:12:46;;;;;;;38.72;27.13;;;11.00;55.90;;;;;;5028765;28;20551;-63
2021/10/27 04:15:12;;;;;;;36.40;26.25;;;11.10;56.20;;;;;;5025735;28;20021;-64
2021/10/27 04:17:39;;;;;;;36.38;26.17;;;10.90;57.60;;;;;;5033824;28;20033;-64
2021/10/27 04:20:06;;;;;;;34.40;25.67;;;11.00;61.40;;;;;;5042943;28;20028;-63
2021/10/27 04:22:33;;;;;;;34.28;24.58;;;11.00;63.20;;;;;;5035988;28;20102;-63
2021/10/27 04:25:02;;;;;;;34.28;24.85;;;11.00;67.80;;;;;;5038300;28;20030;-63
2021/10/27 04:27:28;;;;;;;35.42;25.67;;;11.10;63.80;;;;;;5032470;28;20561;-63
2021/10/27 04:29:54;;;;;;;37.38;24.55;;;11.10;63.30;;;;;;5031519;28;20021;-64
2021/10/27 04:32:20;;;;;;;37.55;26.23;;;11.00;64.70;;;;;;5042437;28;20378;-63
2021/10/27 04:34:45;;;;;;;33.72;23.80;;;11.10;65.00;;;;;;5049049;28;20090;-64
2021/10/27 04:37:11;;;;;;;33.92;24.75;;;11.00;64.40;;;;;;5053344;28;20041;-64
2021/10/27 04:39:36;;;;;;;37.65;26.17;;;11.10;64.20;;;;;;5046267;28;20040;-64
2021/10/27 04:42:03;;;;;;;36.13;25.58;;;11.10;63.90;;;;;;5033597;28;20025;-63
2021/10/27 04:44:28;;;;;;;34.15;25.27;;;11.10;61.00;;;;;;5036312;28;20087;-63
2021/10/27 04:46:56;;;;;;;31.52;23.95;;;11.00;60.60;;;;;;5053632;28;20036;-63
2021/10/27 04:49:22;;;;;;;35.40;25.00;;;11.10;60.50;;;;;;5048297;28;20025;-63
2021/10/27 04:51:47;;;;;;;35.78;25.27;;;11.10;59.90;;;;;;5033456;28;20033;-63
2021/10/27 04:54:13;;;;;;;33.65;24.02;;;11.10;59.90;;;;;;5018521;28;20022;-63
2021/10/27 04:56:40;;;;;;;32.08;24.05;;;11.20;59.70;;;;;;5032390;28;20040;-63
2021/10/27 04:59:06;;;;;;;33.37;23.53;;;11.20;59.70;;;;;;5038022;28;20120;-63
2021/10/27 05:01:32;;;;;;;34.17;23.38;;;11.20;59.70;;;;;;5051197;28;20108;-63
2021/10/27 05:03:58;;;;;;;30.75;23.05;;;11.20;59.30;;;;;;5050949;28;20060;-63
2021/10/27 05:06:23;;;;;;;31.67;22.95;;;11.20;59.60;;;;;;5031900;28;20018;-63
2021/10/27 05:08:50;;;;;;;35.83;23.20;;;11.20;59.40;;;;;;5032949;28;20025;-63
2021/10/27 05:11:22;;;;;;;32.70;23.38;;;11.20;59.10;;;;;;5032271;28;20056;-63
2021/10/27 05:13:47;;;;;;;32.78;22.25;;;11.20;60.50;;;;;;5031623;28;20065;-63
2021/10/27 05:16:13;;;;;;;31.10;22.20;;;11.20;59.20;;;;;;5030721;28;20056;-64
2021/10/27 05:18:39;;;;;;;31.80;21.75;;;11.20;59.70;;;;;;5032986;28;20048;-63
2021/10/27 05:21:04;;;;;;;29.35;23.20;;;11.20;59.70;;;;;;5031063;28;20030;-64
2021/10/27 05:23:30;;;;;;;31.95;22.33;;;11.20;59.40;;;;;;5033103;28;20112;-64
2021/10/27 05:25:56;;;;;;;30.20;22.38;;;11.20;58.90;;;;;;5032046;28;20075;-64
2021/10/27 05:28:21;;;;;;;33.15;23.08;;;11.20;59.00;;;;;;5032805;28;20372;-64
2021/10/27 05:30:47;;;;;;;33.97;23.02;;;11.20;58.80;;;;;;5043272;28;20044;-64
2021/10/27 05:33:14;;;;;;;30.98;21.77;;;11.20;59.10;;;;;;5038898;28;20431;-64
2021/10/27 05:35:40;;;;;;;33.42;21.83;;;11.30;58.90;;;;;;5031814;28;20056;-64
2021/10/27 05:38:06;;;;;;;35.55;21.20;;;11.20;58.80;;;;;;5029526;28;20037;-63
2021/10/27 05:40:32;;;;;;;29.35;21.75;;;11.20;59.00;;;;;;5030665;28;20103;-64
2021/10/27 05:42:58;;;;;;;31.08;21.25;;;11.20;58.70;;;;;;5032160;28;20095;-64
2021/10/27 05:45:27;;;;;;;28.67;20.45;;;11.20;58.30;;;;;;5032119;28;20056;-64
2021/10/27 05:47:57;;;;;;;28.25;21.45;;;11.20;58.20;;;;;;5032827;28;20425;-63
2021/10/27 05:55:36;;;;;;;29.75;19.35;;;11.20;58.00;;;;;;5050818;28;20107;-64
2021/10/27 05:58:03;;;;;;;29.70;19.73;;;11.20;58.30;;;;;;5052364;28;20033;-64
2021/10/27 06:00:29;;;;;;;27.23;20.40;;;11.10;58.00;;;;;;5050593;28;20178;-64
2021/10/27 06:02:54;;;;;;;28.92;20.35;;;11.20;58.40;;;;;;5050050;28;20026;-64
2021/10/27 06:05:20;;;;;;;27.90;20.60;;;11.10;58.40;;;;;;5050679;28;20032;-64
2021/10/27 06:07:46;;;;;;;28.02;21.13;;;11.10;58.40;;;;;;5052518;28;20020;-64
2021/10/27 06:10:19;;;;;;;29.83;20.92;;;11.20;58.50;;;;;;5044381;28;20533;-64
2021/10/27 06:12:56;;;;;;;30.55;20.00;;;11.10;58.10;;;;;;5036404;28;20109;-64
2021/10/27 06:15:22;;;;;;;29.75;19.80;;;11.20;58.40;;;;;;5035687;28;20383;-64
2021/10/27 06:17:48;;;;;;;28.58;19.48;;;11.20;58.30;;;;;;5040100;28;20053;-64
2021/10/27 06:20:15;;;;;;;28.92;19.60;;;11.20;58.50;;;;;;5053487;28;20036;-65
2021/10/27 06:22:42;;;;;;;29.35;19.65;;;11.30;58.40;;;;;;5056323;28;20104;-64
2021/10/27 06:25:10;;;;;;;27.48;19.58;;;11.10;57.60;;;;;;5048384;28;20032;-64
2021/10/27 06:27:37;;;;;;;27.27;19.20;;;11.10;57.70;;;;;;5056133;28;20021;-64
2021/10/27 06:30:09;;;;;;;25.33;18.92;;;11.10;57.30;;;;;;5048216;28;20029;-65
2021/10/27 06:32:46;;;;;;;25.02;19.50;;;11.20;57.50;;;;;;5034030;28;20037;-65
2021/10/27 06:35:19;;;;;;;28.25;19.65;;;11.20;57.70;;;;;;5039073;28;20041;-65
2021/10/27 06:46:23;;;;;;;24.10;19.17;;;11.30;56.60;;;;;;5042565;28;20044;-65
2021/10/27 06:48:45;;;;;;;27.02;19.17;;;11.30;57.00;;;;;;5027144;28;20033;-65
2021/10/27 06:51:11;;;;;;;25.08;18.67;;;11.30;57.20;;;;;;5034941;28;20060;-65
2021/10/27 06:53:36;;;;;;;24.70;19.08;;;11.40;56.30;;;;;;5035252;28;20045;-65
2021/10/27 06:56:08;;;;;;;27.10;18.52;;;11.40;56.70;;;;;;5040129;28;20093;-65
2021/10/27 06:58:42;;;;;;;27.88;19.10;;;11.40;56.60;;;;;;5038277;28;20113;-65
2021/10/27 07:01:09;;;;;;;26.60;18.73;;;11.50;56.50;;;;;;5034899;28;20030;-65
2021/10/27 07:03:46;;;;;;;32.45;18.83;;;11.50;56.50;;;;;;5035022;28;20159;-64
2021/10/27 07:16:40;;;;;;;24.08;18.50;;;11.60;54.80;;;;;;5044696;28;20845;-65
2021/10/27 07:19:06;;;;;;;27.35;19.52;;;11.60;55.90;;;;;;5051369;28;20036;-65
2021/10/27 07:21:32;;;;;;;21.83;18.17;;;11.70;56.00;;;;;;5034399;28;20018;-65
2021/10/27 07:23:57;;;;;;;23.98;18.23;;;11.80;55.80;;;;;;5034437;28;20053;-65
2021/10/27 07:26:25;;;;;;;25.40;18.17;;;11.70;54.30;;;;;;5046005;28;20506;-65
2021/10/27 07:28:53;;;;;;;26.98;19.52;;;11.70;55.20;;;;;;5040770;28;20032;-65
2021/10/27 07:31:19;;;;;;;27.45;18.90;;;11.80;55.90;;;;;;5037962;28;20112;-65
2021/10/27 07:33:54;;;;;;;26.30;19.95;;;11.90;55.00;;;;;;5054641;28;20029;-65
2021/10/27 07:41:30;;;;;;;44.42;26.83;;;11.90;55.10;;;;;;5040548;28;20095;-64
2021/10/27 07:43:58;;;;;;;39.80;26.27;;;11.90;55.90;;;;;;5034442;28;20057;-64
2021/10/27 07:46:24;;;;;;;36.67;25.58;;;11.90;56.30;;;;;;5045015;28;20025;-64
2021/10/27 07:48:49;;;;;;;46.80;27.35;;;11.80;55.90;;;;;;5051309;28;20129;-65
2021/10/27 07:51:15;;;;;;;39.28;26.70;;;11.90;56.10;;;;;;5048943;28;20036;-65
2021/10/27 07:53:53;;;;;;;40.80;28.45;;;11.80;56.20;;;;;;5044472;28;20048;-65
2021/10/27 07:56:18;;;;;;;39.17;27.30;;;11.90;55.80;;;;;;5031609;28;20115;-65
2021/10/27 07:58:49;;;;;;;40.65;26.85;;;11.80;56.40;;;;;;5034438;28;20037;-65
2021/10/27 08:01:16;;;;;;;38.55;27.75;;;11.80;56.10;;;;;;5041156;28;20029;-65
2021/10/27 08:03:42;;;;;;;44.40;27.92;;;11.90;56.10;;;;;;5036191;28;20127;-60
2021/10/27 08:06:10;;;;;;;40.92;27.23;;;11.80;56.50;;;;;;5029533;28;20506;-60
2021/10/27 08:08:36;;;;;;;37.88;26.83;;;11.80;56.60;;;;;;5033715;28;20112;-64
2021/10/27 08:11:01;;;;;;;40.33;26.42;;;11.80;56.50;;;;;;5037860;28;20462;-64
2021/10/27 08:13:27;;;;;;;39.42;27.75;;;11.90;56.10;;;;;;5053194;28;20025;-64
2021/10/27 08:15:54;;;;;;;38.25;27.40;;;11.90;55.90;;;;;;5051380;28;20086;-64
2021/10/27 08:18:34;;;;;;;44.55;26.63;;;12.00;55.50;;;;;;5049477;28;20037;-64
2021/10/27 08:21:00;;;;;;;36.50;27.13;;;12.00;55.40;;;;;;5038891;28;20104;-64
2021/10/27 08:23:30;;;;;;;39.15;28.40;;;12.00;55.40;;;;;;5051869;28;20064;-64
2021/10/27 08:25:58;;;;;;;40.28;29.10;;;12.00;55.70;;;;;;5042354;28;20021;-64
2021/10/27 08:28:38;;;;;;;45.15;28.42;;;12.00;55.60;;;;;;5033570;28;20105;-64
2021/10/27 08:36:06;;;;;;;39.05;27.27;;;12.10;55.50;;;;;;5032234;28;20383;-64
2021/10/27 08:38:32;;;;;;;42.28;27.63;;;12.20;55.40;;;;;;5032091;28;20044;-64
2021/10/27 08:41:01;;;;;;;41.42;28.75;;;12.30;54.90;;;;;;5032637;28;20056;-64
2021/10/27 08:43:26;;;;;;;42.90;27.90;;;12.20;55.20;;;;;;5033282;28;20083;-64
2021/10/27 08:45:52;;;;;;;35.80;27.70;;;12.30;55.00;;;;;;5034346;28;20051;-64
2021/10/27 08:48:18;;;;;;;41.83;29.05;;;12.30;54.60;;;;;;5033202;28;20022;-64
2021/10/27 08:50:45;;;;;;;41.78;27.65;;;12.40;55.10;;;;;;5032705;28;20029;-64
2021/10/27 08:53:15;;;;;;;39.92;27.35;;;12.40;54.90;;;;;;5032040;28;20030;-65
2021/10/27 08:55:41;;;;;;;44.90;29.42;;;12.50;54.60;;;;;;5047955;28;20367;-65
2021/10/27 08:58:07;;;;;;;38.45;27.77;;;12.50;54.40;;;;;;5033154;28;20037;-64
2021/10/27 09:00:44;;;;;;;40.80;30.45;;;12.50;54.30;;;;;;5032275;28;20083;-64
2021/10/27 09:03:38;;;;;;;37.78;28.90;;;12.60;54.10;;;;;;5032917;28;20033;-63
2021/10/27 09:06:46;;;;;;;38.05;28.45;;;12.60;54.40;;;;;;5032514;28;20029;-64
2021/10/27 09:33:29;;;;;;;41.00;28.80;;;12.70;53.70;;;;;;5050688;28;20094;-64
2021/10/27 09:33:41;;;;;;;39.00;27.38;;;12.80;54.00;;;;;;5050266;28;20061;-64
2021/10/27 09:43:53;;;;;;;41.03;31.70;;;13.20;53.10;;;;;;5043152;28;20339;-64
2021/10/27 10:05:14;;;;;;;39.60;30.45;;;13.60;51.00;;;;;;5049424;28;20103;-64
2021/10/27 10:07:41;;;;;;;42.45;31.45;;;13.60;50.90;;;;;;5040667;28;20022;-64
2021/10/27 10:10:09;;;;;;;42.22;31.25;;;13.70;51.20;;;;;;5035562;28;20074;-64
2021/10/27 10:12:37;;;;;;;42.38;30.50;;;13.70;51.10;;;;;;5043117;28;20036;-64
2021/10/27 10:15:04;;;;;;;38.80;30.08;;;13.80;50.80;;;;;;5034493;28;20079;-64
2021/10/27 10:17:34;;;;;;;38.88;29.95;;;13.90;50.30;;;;;;5035233;28;20057;-64
2021/10/27 10:20:01;;;;;;;40.15;30.38;;;13.90;50.20;;;;;;5034867;28;20116;-64
2021/10/27 10:22:37;;;;;;;47.58;33.17;;;14.00;49.90;;;;;;5048769;28;20029;-64
2021/10/27 10:25:15;;;;;;;43.85;31.55;;;14.00;50.40;;;;;;5055931;28;20028;-64
2021/10/27 10:27:42;;;;;;;42.72;32.08;;;14.00;49.20;;;;;;5037852;28;20332;-64
2021/10/27 10:30:32;;;;;;;37.42;30.70;;;14.10;49.90;;;;;;5035997;28;20030;-64
2021/10/27 10:33:11;;;;;;;35.58;29.92;;;14.10;49.50;;;;;;5039696;28;20029;-64
2021/10/27 11:38:36;;;;;;;38.97;30.27;;;15.50;49.30;;;;;;5033626;28;20049;-63
2021/10/27 11:41:19;;;;;;;43.60;31.20;;;15.50;48.40;;;;;;5034844;28;20081;-63
2021/10/27 11:43:55;;;;;;;39.25;30.90;;;15.50;48.20;;;;;;5030541;28;20029;-63
2021/10/27 11:46:27;;;;;;;37.30;29.55;;;15.60;45.70;;;;;;5015124;28;20463;-63
2021/10/27 11:49:08;;;;;;;41.10;30.67;;;15.70;44.40;;;;;;5053547;28;20112;-63
2021/10/27 11:51:34;;;;;;;39.58;29.90;;;15.70;43.40;;;;;;5052210;28;20029;-63
2021/10/27 11:54:09;;;;;;;43.75;30.75;;;15.80;42.60;;;;;;5051212;28;20029;-63
2021/10/27 11:56:35;;;;;;;39.72;28.98;;;15.90;41.40;;;;;;5051622;28;20028;-63
2021/10/27 11:59:01;;;;;;;40.15;28.40;;;15.90;44.10;;;;;;5054401;28;20040;-63
2021/10/27 12:01:36;;;;;;;42.45;28.35;;;16.00;44.70;;;;;;5052894;28;20021;-64
2021/10/27 12:04:11;;;;;;;39.15;28.17;;;16.10;48.20;;;;;;5024403;28;20054;-64
2021/10/27 12:07:13;;;;;;;36.42;28.20;;;16.10;47.50;;;;;;5051801;28;20025;-64
2021/10/27 12:09:44;;;;;;;35.08;28.80;;;16.20;46.00;;;;;;5012069;28;20041;-63
2021/10/27 12:17:41;;;;;;;36.85;27.80;;;16.20;41.20;;;;;;5044737;28;20495;-63
2021/10/27 12:20:07;;;;;;;34.00;27.13;;;16.20;40.80;;;;;;5034105;28;20045;-63
2021/10/27 12:22:33;;;;;;;39.90;30.33;;;16.30;41.50;;;;;;5031862;28;20026;-63
2021/10/27 12:25:04;;;;;;;32.95;26.98;;;16.30;43.00;;;;;;5032196;28;20033;-64
2021/10/27 12:30:52;;;;;;;29.77;24.40;;;16.50;42.30;;;;;;5035552;28;20056;-64
2021/10/27 12:33:36;;;;;;;39.00;26.05;;;16.50;45.90;;;;;;5049328;28;20061;-64
2021/10/27 12:36:39;;;;;;;33.13;25.33;;;16.60;48.00;;;;;;5047798;28;20418;-63
2021/10/27 12:39:20;;;;;;;32.53;25.02;;;16.40;39.00;;;;;;5032343;28;20038;-65
2021/10/27 12:42:11;;;;;;;33.70;25.08;;;16.60;39.20;;;;;;5032945;28;20378;-64
2021/10/27 12:44:52;;;;;;;32.25;24.88;;;16.60;42.80;;;;;;5013882;28;20079;-64
2021/10/27 12:47:29;;;;;;;32.85;26.35;;;16.70;60.90;;;;;;5040910;28;20056;-64
2021/10/27 12:50:14;;;;;;;30.70;25.42;;;16.70;48.90;;;;;;5039349;28;20494;-64
2021/10/27 12:53:00;;;;;;;37.55;26.17;;;16.70;41.10;;;;;;5030052;28;20063;-63
2021/10/27 12:55:26;;;;;;;32.03;24.98;;;16.90;39.10;;;;;;5018557;28;20100;-63
2021/10/27 12:58:07;;;;;;;32.15;24.13;;;17.00;37.40;;;;;;5021133;28;22260;-64
2021/10/27 13:12:15;;;;;;;31.63;23.23;;;16.90;37.10;;;;;;5030279;28;20037;-64
2021/10/27 13:14:47;;;;;;;27.73;21.52;;;16.90;34.40;;;;;;5032126;28;20044;-64
2021/10/27 13:22:30;;;;;;;27.33;19.30;;;17.00;35.30;;;;;;5031111;28;20033;-64
2021/10/27 13:31:02;;;;;;;21.45;17.55;;;17.00;35.60;;;;;;5030942;28;20047;-63
2021/10/27 13:33:29;;;;;;;21.98;16.95;;;17.00;34.60;;;;;;5028623;28;20505;-63
2021/10/27 13:35:55;;;;;;;21.13;16.50;;;17.20;33.50;;;;;;5029753;28;20072;-64
2021/10/27 13:38:22;;;;;;;19.00;13.00;;;17.10;33.80;;;;;;5029274;28;20041;-64
2021/10/27 13:40:48;;;;;;;20.45;12.48;;;17.30;32.60;;;;;;5028888;28;20478;-64
2021/10/27 13:43:19;;;;;;;14.57;11.13;;;17.30;29.80;;;;;;5029033;28;20485;-64
2021/10/27 13:46:14;;;;;;;16.33;11.15;;;17.20;30.80;;;;;;5027234;28;20037;-64
2021/10/27 14:07:39;;;;;;;21.02;11.68;;;17.10;32.10;;;;;;5029750;28;20079;-60
2021/10/27 14:10:07;;;;;;;16.55;11.23;;;17.10;32.20;;;;;;5030717;28;20042;-61
2021/10/27 15:19:56;;;;;;;22.63;11.48;;;16.70;30.50;;;;;;5033048;28;20059;-60
2021/10/27 15:41:14;;;;;;;16.33;10.27;;;16.40;34.10;;;;;;5050005;28;20071;-60
2021/10/27 15:51:53;;;;;;;15.73;10.80;;;16.30;36.40;;;;;;5034870;28;20521;-60
2021/10/27 15:54:19;;;;;;;19.77;13.02;;;16.20;36.20;;;;;;5031654;28;20041;-61
2021/10/27 15:56:45;;;;;;;21.10;13.48;;;16.10;36.40;;;;;;5034770;28;20029;-61
2021/10/27 15:59:12;;;;;;;17.67;12.98;;;16.10;35.90;;;;;;5038401;28;20086;-61
2021/10/27 16:01:38;;;;;;;20.95;13.60;;;16.10;35.80;;;;;;5052957;28;20025;-61
2021/10/27 16:04:04;;;;;;;21.42;14.57;;;16.10;36.00;;;;;;5048648;28;20082;-61
2021/10/27 16:06:34;;;;;;;20.15;12.85;;;16.00;36.20;;;;;;5033772;28;20021;-61
2021/10/27 16:09:02;;;;;;;21.45;13.35;;;16.00;37.20;;;;;;5017434;28;20029;-61
2021/10/27 16:11:27;;;;;;;18.05;13.13;;;16.00;36.90;;;;;;5032791;28;20025;-61
2021/10/27 16:13:53;;;;;;;20.63;12.63;;;15.90;37.20;;;;;;5033550;28;20041;-61
2021/10/27 16:16:18;;;;;;;22.45;15.25;;;15.80;37.10;;;;;;5054069;28;20068;-61
2021/10/27 16:18:46;;;;;;;23.50;15.70;;;15.80;37.50;;;;;;5051509;28;20029;-61
2021/10/27 16:21:11;;;;;;;21.17;16.27;;;15.80;36.60;;;;;;5029049;28;20108;-61
2021/10/27 16:23:37;;;;;;;22.25;16.25;;;15.80;36.80;;;;;;5020080;28;20108;-61
2021/10/27 16:26:04;;;;;;;29.38;17.13;;;15.70;37.10;;;;;;5048733;28;20021;-60
2021/10/27 16:28:30;;;;;;;32.42;25.08;;;15.70;36.80;;;;;;5041531;28;20079;-61
2021/10/27 16:30:56;;;;;;;29.60;23.10;;;15.70;36.80;;;;;;5034196;28;20044;-61
2021/10/27 16:33:22;;;;;;;30.75;22.77;;;15.70;37.80;;;;;;5033890;28;20040;-61
2021/10/27 16:35:50;;;;;;;25.58;18.35;;;15.70;38.70;;;;;;5032414;28;20025;-61
2021/10/27 16:38:16;;;;;;;29.98;18.55;;;15.60;38.40;;;;;;5031444;28;20064;-61
2021/10/27 16:40:42;;;;;;;25.23;18.77;;;15.60;38.30;;;;;;5032971;28;20037;-61
2021/10/27 16:43:09;;;;;;;26.50;18.88;;;15.50;38.20;;;;;;5033338;28;20495;-61
2021/10/27 16:45:35;;;;;;;21.17;16.17;;;15.50;38.60;;;;;;5031526;28;20068;-61
2021/10/27 16:48:02;;;;;;;24.42;17.17;;;15.50;38.40;;;;;;5033428;28;20082;-61
2021/10/27 16:50:27;;;;;;;23.88;16.88;;;15.40;38.70;;;;;;5044850;28;20064;-61
2021/10/27 16:52:56;;;;;;;25.50;17.33;;;15.50;38.50;;;;;;5053273;28;20060;-61
2021/10/27 16:55:22;;;;;;;22.45;17.42;;;15.40;39.00;;;;;;5043286;28;20094;-61
2021/10/27 16:57:49;;;;;;;23.55;18.95;;;15.40;40.10;;;;;;5032007;28;20479;-62
2021/10/27 17:00:17;;;;;;;25.10;17.48;;;15.30;39.90;;;;;;5028421;28;20049;-62
2021/10/27 17:02:43;;;;;;;26.55;18.35;;;15.30;40.20;;;;;;5032552;28;20029;-61
2021/10/27 17:05:09;;;;;;;25.55;19.55;;;15.30;39.10;;;;;;5031708;28;20430;-61
2021/10/27 17:07:36;;;;;;;26.10;19.02;;;15.30;40.10;;;;;;5032171;28;20521;-61
2021/10/27 17:10:03;;;;;;;26.05;19.40;;;15.30;40.10;;;;;;5031984;28;20021;-61
2021/10/27 17:12:29;;;;;;;30.17;21.48;;;15.20;41.00;;;;;;5033022;28;20039;-61
2021/10/27 17:14:55;;;;;;;34.05;20.52;;;15.20;41.30;;;;;;5028057;28;20021;-62
2021/10/27 17:17:20;;;;;;;26.17;19.08;;;15.10;41.30;;;;;;5032148;28;20064;-61
2021/10/27 17:19:46;;;;;;;23.25;18.10;;;15.10;41.20;;;;;;5033329;28;20058;-61
2021/10/27 17:22:13;;;;;;;30.42;19.30;;;15.10;42.00;;;;;;5032723;28;20018;-61
2021/10/27 17:24:39;;;;;;;25.52;18.40;;;15.00;41.40;;;;;;5031255;28;20100;-61